Terminal Aerodrome Forecast
Issued by NWS Shreveport, LA

Home | Current Version | Previous Version | Text Only | Print | Product List | Glossary On
Versions: 1 2 3 4 5 6 7 8 9 10 11 12 13
000
FTUS44 KSHV 200500
TAFELD
TAF
KELD 200521Z 2006/2106 00000KT P6SM BKN250
      TEMPO 2009/2013 5SM BR
     FM201600 15006KT P6SM SCT040 BKN250
     FM210100 VRB03KT P6SM BKN250
     FM210400 VRB03KT P6SM BKN150 BKN250=

USA.gov is the U.S. government's official web portal to all federal, state and local government web resources and services.